sensor_id;sensor_type;location;lat;lon;timestamp;P1;durP1;ratioP1;P2;durP2;ratioP2
31746;SDS011;18319;48.974;8.462;2022-07-21T00:01:03;11.52;;;10.55;;
31746;SDS011;18319;48.974;8.462;2022-07-21T00:03:30;13.23;;;10.93;;
31746;SDS011;18319;48.974;8.462;2022-07-21T00:05:57;10.73;;;9.65;;
31746;SDS011;18319;48.974;8.462;2022-07-21T00:08:24;11.10;;;10.05;;
31746;SDS011;18319;48.974;8.462;2022-07-21T00:10:51;11.15;;;10.25;;
31746;SDS011;18319;48.974;8.462;2022-07-21T00:13:18;11.38;;;10.20;;
31746;SDS011;18319;48.974;8.462;2022-07-21T00:15:46;12.63;;;10.35;;
31746;SDS011;18319;48.974;8.462;2022-07-21T00:18:13;11.27;;;10.25;;
31746;SDS011;18319;48.974;8.462;2022-07-21T00:20:40;11.15;;;10.15;;
31746;SDS011;18319;48.974;8.462;2022-07-21T00:23:08;12.40;;;11.15;;
31746;SDS011;18319;48.974;8.462;2022-07-21T00:25:35;10.93;;;9.95;;
31746;SDS011;18319;48.974;8.462;2022-07-21T00:28:01;12.30;;;10.68;;
31746;SDS011;18319;48.974;8.462;2022-07-21T00:30:29;11.20;;;10.20;;
31746;SDS011;18319;48.974;8.462;2022-07-21T00:32:57;11.52;;;10.35;;
31746;SDS011;18319;48.974;8.462;2022-07-21T00:35:24;9.88;;;8.93;;
31746;SDS011;18319;48.974;8.462;2022-07-21T00:37:51;10.95;;;9.95;;
31746;SDS011;18319;48.974;8.462;2022-07-21T00:40:18;11.88;;;10.00;;
31746;SDS011;18319;48.974;8.462;2022-07-21T00:42:45;11.65;;;10.57;;
31746;SDS011;18319;48.974;8.462;2022-07-21T00:45:12;10.95;;;9.95;;
31746;SDS011;18319;48.974;8.462;2022-07-21T00:47:38;11.63;;;10.43;;
31746;SDS011;18319;48.974;8.462;2022-07-21T00:50:09;15.55;;;10.40;;
31746;SDS011;18319;48.974;8.462;2022-07-21T00:52:37;11.10;;;10.30;;
31746;SDS011;18319;48.974;8.462;2022-07-21T00:55:04;10.98;;;10.05;;
31746;SDS011;18319;48.974;8.462;2022-07-21T00:57:34;10.52;;;9.48;;
31746;SDS011;18319;48.974;8.462;2022-07-21T01:00:01;10.50;;;9.60;;
31746;SDS011;18319;48.974;8.462;2022-07-21T01:02:29;10.70;;;9.85;;
31746;SDS011;18319;48.974;8.462;2022-07-21T01:04:58;10.68;;;9.65;;
31746;SDS011;18319;48.974;8.462;2022-07-21T01:07:26;11.63;;;10.43;;
31746;SDS011;18319;48.974;8.462;2022-07-21T01:09:53;11.05;;;9.90;;
31746;SDS011;18319;48.974;8.462;2022-07-21T01:12:22;11.15;;;9.98;;
31746;SDS011;18319;48.974;8.462;2022-07-21T01:14:49;11.35;;;10.35;;
31746;SDS011;18319;48.974;8.462;2022-07-21T01:17:17;11.77;;;10.23;;
31746;SDS011;18319;48.974;8.462;2022-07-21T01:19:44;10.80;;;9.80;;
31746;SDS011;18319;48.974;8.462;2022-07-21T01:22:13;10.73;;;9.73;;
31746;SDS011;18319;48.974;8.462;2022-07-21T01:24:40;12.07;;;10.88;;
31746;SDS011;18319;48.974;8.462;2022-07-21T01:27:06;11.55;;;10.40;;
31746;SDS011;18319;48.974;8.462;2022-07-21T01:29:33;11.20;;;10.30;;
31746;SDS011;18319;48.974;8.462;2022-07-21T01:32:00;11.98;;;10.85;;
31746;SDS011;18319;48.974;8.462;2022-07-21T01:34:28;11.52;;;10.43;;
31746;SDS011;18319;48.974;8.462;2022-07-21T01:36:55;12.20;;;11.02;;
31746;SDS011;18319;48.974;8.462;2022-07-21T01:39:23;12.30;;;11.20;;
31746;SDS011;18319;48.974;8.462;2022-07-21T01:42:08;14.27;;;10.73;;
31746;SDS011;18319;48.974;8.462;2022-07-21T01:44:34;12.35;;;11.18;;
31746;SDS011;18319;48.974;8.462;2022-07-21T01:47:01;11.68;;;10.65;;
31746;SDS011;18319;48.974;8.462;2022-07-21T01:49:28;13.00;;;11.32;;
31746;SDS011;18319;48.974;8.462;2022-07-21T01:51:55;12.63;;;11.63;;
31746;SDS011;18319;48.974;8.462;2022-07-21T01:54:22;12.77;;;11.45;;
31746;SDS011;18319;48.974;8.462;2022-07-21T01:56:50;11.43;;;10.40;;
31746;SDS011;18319;48.974;8.462;2022-07-21T01:59:17;12.30;;;9.90;;
31746;SDS011;18319;48.974;8.462;2022-07-21T02:01:44;12.68;;;10.98;;
31746;SDS011;18319;48.974;8.462;2022-07-21T02:04:11;11.93;;;10.80;;
31746;SDS011;18319;48.974;8.462;2022-07-21T02:06:39;11.32;;;10.30;;
31746;SDS011;18319;48.974;8.462;2022-07-21T02:09:06;11.25;;;10.23;;
31746;SDS011;18319;48.974;8.462;2022-07-21T02:11:34;16.42;;;9.98;;
31746;SDS011;18319;48.974;8.462;2022-07-21T02:14:02;11.40;;;9.77;;
31746;SDS011;18319;48.974;8.462;2022-07-21T02:16:29;11.88;;;10.55;;
31746;SDS011;18319;48.974;8.462;2022-07-21T02:18:56;11.38;;;10.45;;
31746;SDS011;18319;48.974;8.462;2022-07-21T02:21:23;12.23;;;10.35;;
31746;SDS011;18319;48.974;8.462;2022-07-21T02:23:50;11.05;;;10.15;;
31746;SDS011;18319;48.974;8.462;2022-07-21T02:26:17;11.85;;;10.52;;
31746;SDS011;18319;48.974;8.462;2022-07-21T02:28:45;12.07;;;10.50;;
31746;SDS011;18319;48.974;8.462;2022-07-21T02:31:12;12.35;;;11.07;;
31746;SDS011;18319;48.974;8.462;2022-07-21T02:33:39;10.80;;;9.77;;
31746;SDS011;18319;48.974;8.462;2022-07-21T02:36:06;11.73;;;10.02;;
31746;SDS011;18319;48.974;8.462;2022-07-21T02:38:33;11.45;;;10.32;;
31746;SDS011;18319;48.974;8.462;2022-07-21T02:41:00;11.27;;;10.20;;
31746;SDS011;18319;48.974;8.462;2022-07-21T02:43:27;12.18;;;11.15;;
31746;SDS011;18319;48.974;8.462;2022-07-21T02:45:55;12.55;;;11.13;;
31746;SDS011;18319;48.974;8.462;2022-07-21T02:48:22;11.82;;;10.60;;
31746;SDS011;18319;48.974;8.462;2022-07-21T02:50:49;12.18;;;10.93;;
31746;SDS011;18319;48.974;8.462;2022-07-21T02:53:17;11.30;;;10.30;;
31746;SDS011;18319;48.974;8.462;2022-07-21T02:55:47;10.43;;;9.43;;
31746;SDS011;18319;48.974;8.462;2022-07-21T02:58:16;11.13;;;10.13;;
31746;SDS011;18319;48.974;8.462;2022-07-21T03:00:45;12.40;;;11.00;;
31746;SDS011;18319;48.974;8.462;2022-07-21T03:03:17;11.38;;;9.75;;
31746;SDS011;18319;48.974;8.462;2022-07-21T03:05:45;12.10;;;10.30;;
31746;SDS011;18319;48.974;8.462;2022-07-21T03:08:13;10.43;;;9.43;;
31746;SDS011;18319;48.974;8.462;2022-07-21T03:10:40;11.13;;;9.95;;
31746;SDS011;18319;48.974;8.462;2022-07-21T03:13:07;10.43;;;9.55;;
31746;SDS011;18319;48.974;8.462;2022-07-21T03:15:35;9.90;;;9.07;;
31746;SDS011;18319;48.974;8.462;2022-07-21T03:18:02;11.75;;;10.80;;
31746;SDS011;18319;48.974;8.462;2022-07-21T03:20:32;12.27;;;10.73;;
31746;SDS011;18319;48.974;8.462;2022-07-21T03:23:01;13.05;;;10.90;;
31746;SDS011;18319;48.974;8.462;2022-07-21T03:25:29;11.50;;;10.43;;
31746;SDS011;18319;48.974;8.462;2022-07-21T03:27:56;11.52;;;10.32;;
31746;SDS011;18319;48.974;8.462;2022-07-21T03:30:23;14.35;;;10.95;;
31746;SDS011;18319;48.974;8.462;2022-07-21T03:32:51;12.52;;;10.32;;
31746;SDS011;18319;48.974;8.462;2022-07-21T03:35:19;12.23;;;11.07;;
31746;SDS011;18319;48.974;8.462;2022-07-21T03:40:17;11.52;;;10.43;;
31746;SDS011;18319;48.974;8.462;2022-07-21T03:42:48;12.25;;;11.00;;
31746;SDS011;18319;48.974;8.462;2022-07-21T03:45:15;11.57;;;10.40;;
31746;SDS011;18319;48.974;8.462;2022-07-21T03:47:41;13.20;;;11.77;;
31746;SDS011;18319;48.974;8.462;2022-07-21T03:50:08;12.02;;;10.93;;
31746;SDS011;18319;48.974;8.462;2022-07-21T03:52:37;13.20;;;11.88;;
31746;SDS011;18319;48.974;8.462;2022-07-21T03:55:04;12.68;;;11.48;;
31746;SDS011;18319;48.974;8.462;2022-07-21T03:57:36;12.10;;;11.07;;
31746;SDS011;18319;48.974;8.462;2022-07-21T04:00:06;13.77;;;12.23;;
31746;SDS011;18319;48.974;8.462;2022-07-21T04:02:35;13.70;;;12.30;;
31746;SDS011;18319;48.974;8.462;2022-07-21T04:05:02;13.18;;;11.98;;
31746;SDS011;18319;48.974;8.462;2022-07-21T04:07:29;13.80;;;12.40;;
31746;SDS011;18319;48.974;8.462;2022-07-21T04:09:56;15.27;;;13.68;;
31746;SDS011;18319;48.974;8.462;2022-07-21T04:12:24;15.27;;;13.20;;
31746;SDS011;18319;48.974;8.462;2022-07-21T04:14:53;16.48;;;14.77;;
31746;SDS011;18319;48.974;8.462;2022-07-21T04:17:20;17.17;;;13.27;;
31746;SDS011;18319;48.974;8.462;2022-07-21T04:19:47;15.10;;;13.65;;
31746;SDS011;18319;48.974;8.462;2022-07-21T04:22:14;15.38;;;13.77;;
31746;SDS011;18319;48.974;8.462;2022-07-21T04:24:41;15.80;;;13.82;;
31746;SDS011;18319;48.974;8.462;2022-07-21T04:27:08;14.73;;;13.25;;
31746;SDS011;18319;48.974;8.462;2022-07-21T04:29:35;19.80;;;14.57;;
31746;SDS011;18319;48.974;8.462;2022-07-21T04:32:03;16.85;;;14.68;;
31746;SDS011;18319;48.974;8.462;2022-07-21T04:34:30;17.02;;;15.05;;
31746;SDS011;18319;48.974;8.462;2022-07-21T04:36:57;16.02;;;14.45;;
31746;SDS011;18319;48.974;8.462;2022-07-21T04:39:24;17.25;;;13.63;;
31746;SDS011;18319;48.974;8.462;2022-07-21T04:41:51;14.80;;;13.10;;
31746;SDS011;18319;48.974;8.462;2022-07-21T04:44:18;15.30;;;13.15;;
31746;SDS011;18319;48.974;8.462;2022-07-21T04:46:45;15.23;;;13.85;;
31746;SDS011;18319;48.974;8.462;2022-07-21T04:49:13;18.50;;;14.50;;
31746;SDS011;18319;48.974;8.462;2022-07-21T04:51:40;15.00;;;13.43;;
31746;SDS011;18319;48.974;8.462;2022-07-21T04:54:07;15.57;;;14.00;;
31746;SDS011;18319;48.974;8.462;2022-07-21T04:56:34;15.90;;;14.30;;
31746;SDS011;18319;48.974;8.462;2022-07-21T04:59:00;14.13;;;12.38;;
31746;SDS011;18319;48.974;8.462;2022-07-21T05:01:28;15.13;;;13.82;;
31746;SDS011;18319;48.974;8.462;2022-07-21T05:03:55;15.00;;;13.50;;
31746;SDS011;18319;48.974;8.462;2022-07-21T05:06:23;15.48;;;13.82;;
31746;SDS011;18319;48.974;8.462;2022-07-21T05:08:50;15.77;;;14.02;;
31746;SDS011;18319;48.974;8.462;2022-07-21T05:11:17;15.35;;;13.77;;
31746;SDS011;18319;48.974;8.462;2022-07-21T05:13:44;15.35;;;13.75;;
31746;SDS011;18319;48.974;8.462;2022-07-21T05:16:11;15.32;;;13.93;;
31746;SDS011;18319;48.974;8.462;2022-07-21T05:18:38;14.65;;;13.15;;
31746;SDS011;18319;48.974;8.462;2022-07-21T05:21:05;13.98;;;12.60;;
31746;SDS011;18319;48.974;8.462;2022-07-21T05:23:33;14.00;;;12.57;;
31746;SDS011;18319;48.974;8.462;2022-07-21T05:26:00;15.18;;;13.73;;
31746;SDS011;18319;48.974;8.462;2022-07-21T05:28:27;14.43;;;13.02;;
31746;SDS011;18319;48.974;8.462;2022-07-21T05:30:54;14.68;;;13.20;;
31746;SDS011;18319;48.974;8.462;2022-07-21T05:33:21;14.77;;;13.35;;
31746;SDS011;18319;48.974;8.462;2022-07-21T05:35:48;13.90;;;12.48;;
31746;SDS011;18319;48.974;8.462;2022-07-21T05:38:15;13.85;;;12.57;;
31746;SDS011;18319;48.974;8.462;2022-07-21T05:40:43;12.73;;;11.48;;
31746;SDS011;18319;48.974;8.462;2022-07-21T05:43:10;13.40;;;12.27;;
31746;SDS011;18319;48.974;8.462;2022-07-21T05:45:36;13.10;;;11.88;;
31746;SDS011;18319;48.974;8.462;2022-07-21T05:48:03;14.13;;;12.75;;
31746;SDS011;18319;48.974;8.462;2022-07-21T05:50:31;14.25;;;12.82;;
31746;SDS011;18319;48.974;8.462;2022-07-21T05:52:57;12.85;;;11.65;;
31746;SDS011;18319;48.974;8.462;2022-07-21T05:55:24;12.07;;;11.02;;
31746;SDS011;18319;48.974;8.462;2022-07-21T05:57:52;12.85;;;11.73;;
31746;SDS011;18319;48.974;8.462;2022-07-21T06:00:19;15.25;;;12.13;;
31746;SDS011;18319;48.974;8.462;2022-07-21T06:02:46;12.43;;;11.32;;
31746;SDS011;18319;48.974;8.462;2022-07-21T06:05:13;13.15;;;11.85;;
31746;SDS011;18319;48.974;8.462;2022-07-21T06:07:40;12.38;;;11.13;;
31746;SDS011;18319;48.974;8.462;2022-07-21T06:10:07;12.95;;;11.65;;
31746;SDS011;18319;48.974;8.462;2022-07-21T06:12:35;13.77;;;11.95;;
31746;SDS011;18319;48.974;8.462;2022-07-21T06:15:03;13.65;;;12.30;;
31746;SDS011;18319;48.974;8.462;2022-07-21T06:17:31;14.00;;;11.23;;
31746;SDS011;18319;48.974;8.462;2022-07-21T06:20:05;11.85;;;10.75;;
31746;SDS011;18319;48.974;8.462;2022-07-21T06:22:33;12.23;;;11.02;;
31746;SDS011;18319;48.974;8.462;2022-07-21T06:25:00;11.88;;;10.73;;
31746;SDS011;18319;48.974;8.462;2022-07-21T06:27:31;13.15;;;10.55;;
31746;SDS011;18319;48.974;8.462;2022-07-21T06:29:58;10.70;;;9.73;;
31746;SDS011;18319;48.974;8.462;2022-07-21T06:32:26;12.02;;;10.85;;
31746;SDS011;18319;48.974;8.462;2022-07-21T06:34:53;10.90;;;9.90;;
31746;SDS011;18319;48.974;8.462;2022-07-21T06:37:21;10.70;;;9.70;;
31746;SDS011;18319;48.974;8.462;2022-07-21T06:39:48;10.10;;;9.05;;
31746;SDS011;18319;48.974;8.462;2022-07-21T06:42:15;9.52;;;8.73;;
31746;SDS011;18319;48.974;8.462;2022-07-21T06:44:42;9.45;;;8.63;;
31746;SDS011;18319;48.974;8.462;2022-07-21T06:47:08;9.32;;;8.55;;
31746;SDS011;18319;48.974;8.462;2022-07-21T06:49:37;7.95;;;7.35;;
31746;SDS011;18319;48.974;8.462;2022-07-21T06:52:04;9.25;;;8.35;;
31746;SDS011;18319;48.974;8.462;2022-07-21T06:54:31;8.45;;;7.82;;
31746;SDS011;18319;48.974;8.462;2022-07-21T06:56:57;9.02;;;8.18;;
31746;SDS011;18319;48.974;8.462;2022-07-21T06:59:24;8.43;;;7.82;;
31746;SDS011;18319;48.974;8.462;2022-07-21T07:01:51;7.97;;;7.13;;
31746;SDS011;18319;48.974;8.462;2022-07-21T07:04:18;7.45;;;6.85;;
31746;SDS011;18319;48.974;8.462;2022-07-21T07:06:46;7.88;;;7.22;;
31746;SDS011;18319;48.974;8.462;2022-07-21T07:09:17;7.45;;;6.90;;
31746;SDS011;18319;48.974;8.462;2022-07-21T07:11:43;8.00;;;7.40;;
31746;SDS011;18319;48.974;8.462;2022-07-21T07:14:11;7.38;;;6.78;;
31746;SDS011;18319;48.974;8.462;2022-07-21T07:16:38;7.22;;;6.50;;
31746;SDS011;18319;48.974;8.462;2022-07-21T07:19:05;7.80;;;7.10;;
31746;SDS011;18319;48.974;8.462;2022-07-21T07:21:32;7.35;;;6.70;;
31746;SDS011;18319;48.974;8.462;2022-07-21T07:24:00;8.80;;;6.75;;
31746;SDS011;18319;48.974;8.462;2022-07-21T07:26:28;7.22;;;6.63;;
31746;SDS011;18319;48.974;8.462;2022-07-21T07:28:55;7.68;;;7.07;;
31746;SDS011;18319;48.974;8.462;2022-07-21T07:31:22;7.70;;;7.10;;
31746;SDS011;18319;48.974;8.462;2022-07-21T07:33:48;7.53;;;6.80;;
31746;SDS011;18319;48.974;8.462;2022-07-21T07:36:15;6.55;;;5.95;;
31746;SDS011;18319;48.974;8.462;2022-07-21T07:38:42;7.45;;;6.00;;
31746;SDS011;18319;48.974;8.462;2022-07-21T07:41:11;7.38;;;6.65;;
31746;SDS011;18319;48.974;8.462;2022-07-21T07:43:37;6.32;;;5.93;;
31746;SDS011;18319;48.974;8.462;2022-07-21T07:46:04;6.65;;;6.10;;
31746;SDS011;18319;48.974;8.462;2022-07-21T07:48:32;7.22;;;6.60;;
31746;SDS011;18319;48.974;8.462;2022-07-21T07:51:01;7.07;;;6.50;;
31746;SDS011;18319;48.974;8.462;2022-07-21T07:53:29;7.00;;;6.50;;
31746;SDS011;18319;48.974;8.462;2022-07-21T07:55:56;6.28;;;5.82;;
31746;SDS011;18319;48.974;8.462;2022-07-21T07:58:24;6.43;;;5.93;;
31746;SDS011;18319;48.974;8.462;2022-07-21T08:00:51;7.03;;;6.53;;
31746;SDS011;18319;48.974;8.462;2022-07-21T08:03:18;6.53;;;6.03;;
31746;SDS011;18319;48.974;8.462;2022-07-21T08:05:47;6.25;;;5.68;;
31746;SDS011;18319;48.974;8.462;2022-07-21T08:08:14;6.22;;;5.82;;
31746;SDS011;18319;48.974;8.462;2022-07-21T08:10:42;6.78;;;6.18;;
31746;SDS011;18319;48.974;8.462;2022-07-21T08:13:10;7.35;;;6.63;;
31746;SDS011;18319;48.974;8.462;2022-07-21T08:15:39;8.90;;;5.95;;
31746;SDS011;18319;48.974;8.462;2022-07-21T08:18:06;6.70;;;6.10;;
31746;SDS011;18319;48.974;8.462;2022-07-21T08:20:33;6.30;;;5.90;;
31746;SDS011;18319;48.974;8.462;2022-07-21T08:23:00;6.22;;;5.72;;
31746;SDS011;18319;48.974;8.462;2022-07-21T08:25:28;6.05;;;5.55;;
31746;SDS011;18319;48.974;8.462;2022-07-21T08:27:55;6.75;;;6.10;;
31746;SDS011;18319;48.974;8.462;2022-07-21T08:30:22;7.25;;;6.75;;
31746;SDS011;18319;48.974;8.462;2022-07-21T08:32:50;6.97;;;6.38;;
31746;SDS011;18319;48.974;8.462;2022-07-21T08:35:17;6.55;;;6.05;;
31746;SDS011;18319;48.974;8.462;2022-07-21T08:37:53;6.90;;;6.30;;
31746;SDS011;18319;48.974;8.462;2022-07-21T08:40:22;8.70;;;7.82;;
31746;SDS011;18319;48.974;8.462;2022-07-21T08:42:50;7.72;;;6.95;;
31746;SDS011;18319;48.974;8.462;2022-07-21T08:45:18;8.13;;;7.35;;
31746;SDS011;18319;48.974;8.462;2022-07-21T08:47:45;8.15;;;7.40;;
31746;SDS011;18319;48.974;8.462;2022-07-21T08:50:13;7.88;;;7.18;;
31746;SDS011;18319;48.974;8.462;2022-07-21T08:52:40;7.35;;;6.95;;
31746;SDS011;18319;48.974;8.462;2022-07-21T08:55:07;7.30;;;6.70;;
31746;SDS011;18319;48.974;8.462;2022-07-21T08:57:37;8.65;;;7.70;;
31746;SDS011;18319;48.974;8.462;2022-07-21T09:00:04;7.18;;;6.65;;
31746;SDS011;18319;48.974;8.462;2022-07-21T09:02:33;7.15;;;6.63;;
31746;SDS011;18319;48.974;8.462;2022-07-21T09:05:02;8.23;;;7.55;;
31746;SDS011;18319;48.974;8.462;2022-07-21T09:07:37;7.78;;;7.10;;
31746;SDS011;18319;48.974;8.462;2022-07-21T09:10:13;7.63;;;7.03;;
31746;SDS011;18319;48.974;8.462;2022-07-21T09:12:47;7.53;;;6.75;;
31746;SDS011;18319;48.974;8.462;2022-07-21T09:15:15;7.07;;;6.55;;
31746;SDS011;18319;48.974;8.462;2022-07-21T09:17:44;7.18;;;6.47;;
31746;SDS011;18319;48.974;8.462;2022-07-21T09:20:21;7.15;;;6.45;;
31746;SDS011;18319;48.974;8.462;2022-07-21T09:23:02;6.75;;;5.95;;
31746;SDS011;18319;48.974;8.462;2022-07-21T09:25:37;5.78;;;5.22;;
31746;SDS011;18319;48.974;8.462;2022-07-21T09:28:10;5.93;;;5.00;;
31746;SDS011;18319;48.974;8.462;2022-07-21T09:30:53;5.22;;;4.72;;
31746;SDS011;18319;48.974;8.462;2022-07-21T09:33:23;4.63;;;4.10;;
31746;SDS011;18319;48.974;8.462;2022-07-21T09:35:52;4.38;;;3.97;;
31746;SDS011;18319;48.974;8.462;2022-07-21T09:41:04;4.03;;;3.83;;
31746;SDS011;18319;48.974;8.462;2022-07-21T09:43:41;4.70;;;4.30;;
31746;SDS011;18319;48.974;8.462;2022-07-21T09:46:12;5.15;;;4.43;;
31746;SDS011;18319;48.974;8.462;2022-07-21T09:48:42;4.25;;;4.00;;
31746;SDS011;18319;48.974;8.462;2022-07-21T09:51:26;4.60;;;4.30;;
31746;SDS011;18319;48.974;8.462;2022-07-21T09:53:56;4.78;;;4.47;;
31746;SDS011;18319;48.974;8.462;2022-07-21T09:56:26;4.45;;;4.20;;
31746;SDS011;18319;48.974;8.462;2022-07-21T09:58:55;5.10;;;4.68;;
31746;SDS011;18319;48.974;8.462;2022-07-21T10:01:23;5.10;;;4.80;;
31746;SDS011;18319;48.974;8.462;2022-07-21T10:03:52;5.13;;;4.72;;
31746;SDS011;18319;48.974;8.462;2022-07-21T10:06:22;5.85;;;4.70;;
31746;SDS011;18319;48.974;8.462;2022-07-21T10:08:50;4.57;;;4.28;;
31746;SDS011;18319;48.974;8.462;2022-07-21T10:11:18;5.20;;;4.70;;
31746;SDS011;18319;48.974;8.462;2022-07-21T10:13:46;5.68;;;5.15;;
31746;SDS011;18319;48.974;8.462;2022-07-21T10:16:14;5.60;;;5.10;;
31746;SDS011;18319;48.974;8.462;2022-07-21T10:18:52;5.63;;;5.32;;
31746;SDS011;18319;48.974;8.462;2022-07-21T10:21:28;5.82;;;5.43;;
31746;SDS011;18319;48.974;8.462;2022-07-21T10:24:00;5.18;;;4.78;;
31746;SDS011;18319;48.974;8.462;2022-07-21T10:26:27;4.97;;;4.47;;
31746;SDS011;18319;48.974;8.462;2022-07-21T10:28:55;4.68;;;4.28;;
31746;SDS011;18319;48.974;8.462;2022-07-21T10:31:23;4.93;;;4.57;;
31746;SDS011;18319;48.974;8.462;2022-07-21T10:33:56;4.50;;;4.28;;
31746;SDS011;18319;48.974;8.462;2022-07-21T10:36:39;5.00;;;4.80;;
31746;SDS011;18319;48.974;8.462;2022-07-21T10:39:20;5.10;;;4.63;;
31746;SDS011;18319;48.974;8.462;2022-07-21T10:41:50;4.82;;;4.43;;
31746;SDS011;18319;48.974;8.462;2022-07-21T10:44:39;5.75;;;4.10;;
31746;SDS011;18319;48.974;8.462;2022-07-21T10:47:14;4.13;;;3.83;;
31746;SDS011;18319;48.974;8.462;2022-07-21T10:49:44;4.22;;;3.95;;
31746;SDS011;18319;48.974;8.462;2022-07-21T10:55:23;4.80;;;3.40;;
31746;SDS011;18319;48.974;8.462;2022-07-21T11:00:42;4.15;;;3.95;;
31746;SDS011;18319;48.974;8.462;2022-07-21T11:03:19;4.25;;;3.90;;
31746;SDS011;18319;48.974;8.462;2022-07-21T11:08:42;4.88;;;3.90;;
31746;SDS011;18319;48.974;8.462;2022-07-21T11:11:10;3.80;;;2.95;;
31746;SDS011;18319;48.974;8.462;2022-07-21T11:19:31;3.03;;;2.70;;
31746;SDS011;18319;48.974;8.462;2022-07-21T11:22:02;3.40;;;3.20;;
31746;SDS011;18319;48.974;8.462;2022-07-21T11:24:30;3.25;;;3.05;;
31746;SDS011;18319;48.974;8.462;2022-07-21T11:26:58;2.55;;;2.35;;
31746;SDS011;18319;48.974;8.462;2022-07-21T11:29:26;2.78;;;2.40;;
31746;SDS011;18319;48.974;8.462;2022-07-21T11:31:54;2.40;;;2.30;;
31746;SDS011;18319;48.974;8.462;2022-07-21T11:34:33;2.13;;;2.00;;
31746;SDS011;18319;48.974;8.462;2022-07-21T11:37:03;4.18;;;2.08;;
31746;SDS011;18319;48.974;8.462;2022-07-21T11:39:30;3.55;;;2.28;;
31746;SDS011;18319;48.974;8.462;2022-07-21T11:42:01;2.40;;;2.30;;
31746;SDS011;18319;48.974;8.462;2022-07-21T11:44:28;2.67;;;2.58;;
31746;SDS011;18319;48.974;8.462;2022-07-21T11:46:56;2.38;;;2.28;;
31746;SDS011;18319;48.974;8.462;2022-07-21T11:49:24;2.78;;;2.13;;
31746;SDS011;18319;48.974;8.462;2022-07-21T11:51:53;2.83;;;2.70;;
31746;SDS011;18319;48.974;8.462;2022-07-21T11:54:22;2.78;;;2.60;;
31746;SDS011;18319;48.974;8.462;2022-07-21T11:56:51;2.35;;;2.25;;
31746;SDS011;18319;48.974;8.462;2022-07-21T11:59:19;2.67;;;2.47;;
31746;SDS011;18319;48.974;8.462;2022-07-21T12:01:50;2.72;;;2.33;;
31746;SDS011;18319;48.974;8.462;2022-07-21T12:07:12;2.67;;;2.47;;
31746;SDS011;18319;48.974;8.462;2022-07-21T12:09:46;2.17;;;2.08;;
31746;SDS011;18319;48.974;8.462;2022-07-21T12:12:26;2.80;;;2.30;;
31746;SDS011;18319;48.974;8.462;2022-07-21T12:14:55;2.58;;;2.47;;
31746;SDS011;18319;48.974;8.462;2022-07-21T12:17:32;2.72;;;2.45;;
31746;SDS011;18319;48.974;8.462;2022-07-21T12:20:00;2.58;;;2.38;;
31746;SDS011;18319;48.974;8.462;2022-07-21T12:22:35;2.58;;;2.38;;
31746;SDS011;18319;48.974;8.462;2022-07-21T12:25:07;3.00;;;2.75;;
31746;SDS011;18319;48.974;8.462;2022-07-21T12:27:35;3.90;;;2.63;;
31746;SDS011;18319;48.974;8.462;2022-07-21T12:30:05;6.15;;;3.08;;
31746;SDS011;18319;48.974;8.462;2022-07-21T12:32:38;2.85;;;2.65;;
31746;SDS011;18319;48.974;8.462;2022-07-21T12:35:16;2.58;;;2.30;;
31746;SDS011;18319;48.974;8.462;2022-07-21T12:37:52;3.55;;;3.25;;
31746;SDS011;18319;48.974;8.462;2022-07-21T12:40:20;3.30;;;3.10;;
31746;SDS011;18319;48.974;8.462;2022-07-21T12:42:48;2.97;;;2.78;;
31746;SDS011;18319;48.974;8.462;2022-07-21T12:45:16;4.63;;;2.40;;
31746;SDS011;18319;48.974;8.462;2022-07-21T12:50:34;2.50;;;2.40;;
31746;SDS011;18319;48.974;8.462;2022-07-21T12:53:05;3.20;;;2.90;;
31746;SDS011;18319;48.974;8.462;2022-07-21T12:55:31;2.58;;;2.47;;
31746;SDS011;18319;48.974;8.462;2022-07-21T12:57:58;3.25;;;2.53;;
31746;SDS011;18319;48.974;8.462;2022-07-21T13:00:26;3.08;;;2.55;;
31746;SDS011;18319;48.974;8.462;2022-07-21T13:02:53;2.88;;;2.67;;
31746;SDS011;18319;48.974;8.462;2022-07-21T13:05:22;2.20;;;2.10;;
31746;SDS011;18319;48.974;8.462;2022-07-21T13:07:50;2.72;;;2.53;;
31746;SDS011;18319;48.974;8.462;2022-07-21T13:10:19;3.30;;;2.58;;
31746;SDS011;18319;48.974;8.462;2022-07-21T13:12:46;2.55;;;2.40;;
31746;SDS011;18319;48.974;8.462;2022-07-21T13:15:13;2.92;;;2.60;;
31746;SDS011;18319;48.974;8.462;2022-07-21T13:17:41;2.22;;;2.13;;
31746;SDS011;18319;48.974;8.462;2022-07-21T13:20:10;3.17;;;2.95;;
31746;SDS011;18319;48.974;8.462;2022-07-21T13:22:37;4.20;;;2.92;;
31746;SDS011;18319;48.974;8.462;2022-07-21T13:25:05;3.78;;;2.92;;
31746;SDS011;18319;48.974;8.462;2022-07-21T13:27:34;2.25;;;2.15;;
31746;SDS011;18319;48.974;8.462;2022-07-21T13:30:01;2.88;;;2.67;;
31746;SDS011;18319;48.974;8.462;2022-07-21T13:32:29;2.33;;;2.13;;
31746;SDS011;18319;48.974;8.462;2022-07-21T13:34:56;2.70;;;2.50;;
31746;SDS011;18319;48.974;8.462;2022-07-21T13:37:23;3.20;;;2.90;;
31746;SDS011;18319;48.974;8.462;2022-07-21T13:39:50;2.47;;;2.38;;
31746;SDS011;18319;48.974;8.462;2022-07-21T13:42:16;2.40;;;2.30;;
31746;SDS011;18319;48.974;8.462;2022-07-21T13:44:45;2.80;;;2.60;;
31746;SDS011;18319;48.974;8.462;2022-07-21T13:47:11;3.95;;;2.38;;
31746;SDS011;18319;48.974;8.462;2022-07-21T13:49:38;2.85;;;2.65;;
31746;SDS011;18319;48.974;8.462;2022-07-21T13:52:05;2.55;;;2.45;;
31746;SDS011;18319;48.974;8.462;2022-07-21T13:54:32;2.78;;;2.58;;
31746;SDS011;18319;48.974;8.462;2022-07-21T13:56:59;3.17;;;2.78;;
31746;SDS011;18319;48.974;8.462;2022-07-21T13:59:26;3.97;;;2.58;;
31746;SDS011;18319;48.974;8.462;2022-07-21T14:01:55;2.78;;;2.63;;
31746;SDS011;18319;48.974;8.462;2022-07-21T14:04:22;3.28;;;2.90;;
31746;SDS011;18319;48.974;8.462;2022-07-21T14:06:49;2.67;;;2.50;;
31746;SDS011;18319;48.974;8.462;2022-07-21T14:09:17;2.60;;;2.40;;
31746;SDS011;18319;48.974;8.462;2022-07-21T14:11:46;4.50;;;2.83;;
31746;SDS011;18319;48.974;8.462;2022-07-21T14:14:13;2.60;;;2.50;;
31746;SDS011;18319;48.974;8.462;2022-07-21T14:16:46;2.45;;;2.33;;
31746;SDS011;18319;48.974;8.462;2022-07-21T14:19:14;2.70;;;2.50;;
31746;SDS011;18319;48.974;8.462;2022-07-21T14:21:41;2.92;;;2.72;;
31746;SDS011;18319;48.974;8.462;2022-07-21T14:24:08;2.67;;;2.58;;
31746;SDS011;18319;48.974;8.462;2022-07-21T14:26:53;2.53;;;2.33;;
31746;SDS011;18319;48.974;8.462;2022-07-21T14:29:20;2.25;;;2.08;;
31746;SDS011;18319;48.974;8.462;2022-07-21T14:31:46;2.72;;;2.63;;
31746;SDS011;18319;48.974;8.462;2022-07-21T14:34:15;3.83;;;2.80;;
31746;SDS011;18319;48.974;8.462;2022-07-21T14:36:42;3.13;;;2.67;;
31746;SDS011;18319;48.974;8.462;2022-07-21T14:39:09;2.95;;;2.85;;
31746;SDS011;18319;48.974;8.462;2022-07-21T14:41:36;3.08;;;2.83;;
31746;SDS011;18319;48.974;8.462;2022-07-21T14:44:03;2.95;;;2.45;;
31746;SDS011;18319;48.974;8.462;2022-07-21T14:46:30;2.63;;;2.53;;
31746;SDS011;18319;48.974;8.462;2022-07-21T14:48:57;2.63;;;2.42;;
31746;SDS011;18319;48.974;8.462;2022-07-21T14:51:25;2.83;;;2.63;;
31746;SDS011;18319;48.974;8.462;2022-07-21T14:53:52;3.13;;;2.88;;
31746;SDS011;18319;48.974;8.462;2022-07-21T14:56:19;3.92;;;2.90;;
31746;SDS011;18319;48.974;8.462;2022-07-21T14:58:46;2.80;;;2.70;;
31746;SDS011;18319;48.974;8.462;2022-07-21T15:01:13;3.05;;;2.85;;
31746;SDS011;18319;48.974;8.462;2022-07-21T15:03:39;2.78;;;2.58;;
31746;SDS011;18319;48.974;8.462;2022-07-21T15:06:07;3.13;;;2.90;;
31746;SDS011;18319;48.974;8.462;2022-07-21T15:08:36;2.33;;;2.13;;